createdAt,value
2018-03-22T00:00:20.687Z,2.25
2018-03-22T00:01:30.400Z,2.37
2018-03-22T00:02:39.853Z,2.34
2018-03-22T00:03:49.287Z,2.34
2018-03-22T00:04:58.737Z,2.34
2018-03-22T00:06:08.691Z,2.39
2018-03-22T00:07:18.138Z,2.25
2018-03-22T00:08:27.323Z,2.34
2018-03-22T00:09:37.297Z,2.28
2018-03-22T00:10:46.996Z,2.26
2018-03-22T00:11:56.970Z,2.33
2018-03-22T00:13:06.670Z,2.3
2018-03-22T00:14:16.107Z,2.23
2018-03-22T00:15:25.854Z,2.25
2018-03-22T00:16:35.569Z,2.12
2018-03-22T00:17:45.006Z,2.18
2018-03-22T00:18:54.445Z,2.05
2018-03-22T00:20:04.408Z,2.04
2018-03-22T00:21:14.119Z,2.01
2018-03-22T00:22:23.820Z,2.04
2018-03-22T00:23:33.521Z,1.88
2018-03-22T00:24:42.960Z,1.97
2018-03-22T00:25:52.150Z,2.05
2018-03-22T00:27:01.326Z,1.95
2018-03-22T00:28:10.502Z,1.92
2018-03-22T00:29:20.478Z,1.95
2018-03-22T00:30:30.448Z,1.89
2018-03-22T00:31:39.378Z,1.86
2018-03-22T00:32:49.100Z,1.84
2018-03-22T00:33:58.843Z,1.79
2018-03-22T00:35:08.556Z,1.78
2018-03-22T00:36:17.995Z,1.78
2018-03-22T00:37:27.450Z,1.76
2018-03-22T00:38:37.403Z,1.76
2018-03-22T00:39:47.102Z,1.75
2018-03-22T00:40:56.535Z,1.74
2018-03-22T00:42:06.226Z,1.6
2018-03-22T00:43:16.195Z,1.57
2018-03-22T00:44:25.947Z,1.52
2018-03-22T00:45:35.661Z,1.58
2018-03-22T00:46:45.622Z,1.53
2018-03-22T00:47:55.609Z,1.56
2018-03-22T00:49:05.590Z,1.46
2018-03-22T00:50:15.303Z,1.46
2018-03-22T00:51:25.007Z,1.45
2018-03-22T00:52:34.446Z,1.48
2018-03-22T00:53:44.175Z,1.43
2018-03-22T00:54:53.611Z,1.53
2018-03-22T00:56:02.748Z,1.45
2018-03-22T00:57:12.440Z,1.52
2018-03-22T00:58:22.415Z,1.46
2018-03-22T00:59:32.454Z,1.56
2018-03-22T01:00:41.679Z,1.52
2018-03-22T01:01:51.381Z,1.43
2018-03-22T01:03:01.081Z,1.45
2018-03-22T01:04:10.782Z,1.5
2018-03-22T01:05:20.488Z,1.52
2018-03-22T01:06:30.121Z,1.52
2018-03-22T01:07:40.101Z,1.56
2018-03-22T01:08:49.799Z,1.53
2018-03-22T01:09:59.494Z,1.5
2018-03-22T01:11:08.937Z,1.53
2018-03-22T01:12:18.893Z,1.5
2018-03-22T01:13:28.614Z,1.56
2018-03-22T01:14:38.581Z,1.52
2018-03-22T01:15:48.296Z,1.49
2018-03-22T01:16:58.010Z,1.52
2018-03-22T01:18:07.448Z,1.45
2018-03-22T01:19:17.411Z,1.48
2018-03-22T01:20:27.428Z,1.46
2018-03-22T01:21:37.383Z,1.48
2018-03-22T01:22:47.359Z,1.46
2018-03-22T01:23:56.807Z,1.43
2018-03-22T01:25:06.772Z,1.48
2018-03-22T01:26:16.471Z,1.32
2018-03-22T01:27:26.426Z,1.4
2018-03-22T01:28:35.867Z,1.31
2018-03-22T01:29:45.566Z,1.31
2018-03-22T01:30:55.263Z,1.38
2018-03-22T01:32:05.225Z,1.4
2018-03-22T01:33:15.188Z,1.32
2018-03-22T01:34:24.649Z,1.28
2018-03-22T01:35:34.609Z,1.24
2018-03-22T01:36:44.322Z,1.28
2018-03-22T01:37:54.272Z,1.31
2018-03-22T01:39:03.466Z,1.24
2018-03-22T01:40:13.172Z,1.22
2018-03-22T01:41:23.137Z,1.27
2018-03-22T01:42:33.390Z,1.25
2018-03-22T01:43:42.835Z,1.22
2018-03-22T01:44:52.285Z,1.24
2018-03-22T01:46:01.982Z,1.27
2018-03-22T01:47:11.686Z,1.27
2018-03-22T01:48:21.657Z,1.27
2018-03-22T01:49:31.625Z,1.24
2018-03-22T01:50:41.340Z,1.24
2018-03-22T01:51:51.295Z,1.24
2018-03-22T01:53:00.746Z,1.16
2018-03-22T01:54:10.188Z,1.18
2018-03-22T01:55:19.629Z,1.14
2018-03-22T01:56:29.334Z,1.13
2018-03-22T01:57:39.032Z,1.1
2018-03-22T01:58:48.993Z,1.14
2018-03-22T01:59:58.953Z,1.12
2018-03-22T02:01:08.651Z,1.13
2018-03-22T02:02:18.378Z,1.18
2018-03-22T02:03:28.362Z,1.13
2018-03-22T02:04:37.797Z,1.12
2018-03-22T02:05:47.497Z,1.1
2018-03-22T02:06:57.199Z,1.12
2018-03-22T02:08:06.390Z,1.16
2018-03-22T02:09:16.089Z,1.14
2018-03-22T02:10:25.791Z,1.18
2018-03-22T02:11:35.746Z,1.22
2018-03-22T02:12:45.444Z,1.21
2018-03-22T02:13:54.876Z,1.16
2018-03-22T02:15:04.837Z,1.24
2018-03-22T02:16:14.285Z,1.14
2018-03-22T02:17:23.981Z,1.21
2018-03-22T02:18:33.940Z,1.31
2018-03-22T02:19:44.138Z,1.28
2018-03-22T02:20:54.089Z,1.32
2018-03-22T02:22:04.054Z,1.24
2018-03-22T02:23:14.012Z,1.25
2018-03-22T02:24:23.712Z,1.38
2018-03-22T02:25:33.415Z,1.32
2018-03-22T02:26:42.858Z,1.34
2018-03-22T02:27:52.572Z,1.34
2018-03-22T02:29:02.278Z,1.31
2018-03-22T02:30:12.237Z,1.4
2018-03-22T02:31:21.692Z,1.31
2018-03-22T02:32:31.656Z,1.34
2018-03-22T02:33:41.383Z,1.36
2018-03-22T02:34:51.101Z,1.38
2018-03-22T02:36:00.543Z,1.32
2018-03-22T02:37:10.518Z,1.36
2018-03-22T02:38:20.474Z,1.32
2018-03-22T02:39:29.929Z,1.38
2018-03-22T02:40:39.637Z,1.34
2018-03-22T02:41:49.083Z,1.36
2018-03-22T02:42:58.781Z,1.31
2018-03-22T02:44:08.231Z,1.38
2018-03-22T02:45:18.195Z,1.36
2018-03-22T02:46:27.632Z,1.36
2018-03-22T02:47:37.336Z,1.34
2018-03-22T02:48:47.291Z,1.31
2018-03-22T02:49:57.006Z,1.39
2018-03-22T02:51:07.258Z,1.36
2018-03-22T02:52:17.353Z,1.34
2018-03-22T02:53:27.052Z,1.27
2018-03-22T02:54:36.490Z,1.32
2018-03-22T02:55:46.462Z,1.34
2018-03-22T02:56:56.429Z,1.32
2018-03-22T02:58:06.416Z,1.32
2018-03-22T02:59:16.393Z,1.38
2018-03-22T03:00:26.402Z,1.38
2018-03-22T03:01:36.377Z,1.38
2018-03-22T03:02:46.092Z,1.43
2018-03-22T03:03:55.549Z,1.38
2018-03-22T03:05:05.255Z,1.42
2018-03-22T03:06:15.256Z,1.45
2018-03-22T03:07:24.954Z,1.34
2018-03-22T03:08:34.652Z,1.5
2018-03-22T03:09:44.672Z,1.39
2018-03-22T03:10:54.381Z,1.4
2018-03-22T03:12:04.342Z,1.32
2018-03-22T03:13:13.776Z,1.48
2018-03-22T03:14:23.480Z,1.5
2018-03-22T03:15:32.919Z,1.39
2018-03-22T03:16:42.876Z,1.46
2018-03-22T03:17:52.829Z,1.45
2018-03-22T03:19:02.514Z,1.46
2018-03-22T03:20:12.227Z,1.46
2018-03-22T03:21:21.915Z,1.53
2018-03-22T03:22:31.624Z,1.4
2018-03-22T03:23:41.330Z,1.46
2018-03-22T03:24:51.293Z,1.42
2018-03-22T03:26:01.264Z,1.46
2018-03-22T03:27:10.699Z,1.5
2018-03-22T03:28:20.652Z,1.43
2018-03-22T03:29:30.623Z,1.4
2018-03-22T03:30:39.800Z,1.39
2018-03-22T03:31:49.275Z,1.45
2018-03-22T03:32:59.524Z,1.45
2018-03-22T03:34:09.239Z,1.5
2018-03-22T03:35:18.687Z,1.48
2018-03-22T03:36:28.381Z,1.34
2018-03-22T03:37:38.077Z,1.38
2018-03-22T03:38:47.776Z,1.42
2018-03-22T03:39:57.463Z,1.42
2018-03-22T03:41:07.168Z,1.39
2018-03-22T03:42:16.855Z,1.36
2018-03-22T03:43:26.815Z,1.45
2018-03-22T03:44:36.759Z,1.38
2018-03-22T03:45:46.460Z,1.38
2018-03-22T03:46:56.158Z,1.43
2018-03-22T03:48:05.611Z,1.4
2018-03-22T03:49:15.061Z,1.42
2018-03-22T03:50:25.018Z,1.4
2018-03-22T03:51:34.719Z,1.42
2018-03-22T03:52:44.419Z,1.32
2018-03-22T03:53:54.391Z,1.31
2018-03-22T03:55:04.335Z,1.24
2018-03-22T03:56:14.049Z,1.32
2018-03-22T03:57:23.801Z,1.38
2018-03-22T03:58:32.979Z,1.36
2018-03-22T03:59:43.192Z,1.25
2018-03-22T04:00:52.886Z,1.28
2018-03-22T04:02:02.887Z,1.28
2018-03-22T04:03:12.590Z,1.3
2018-03-22T04:04:22.299Z,1.22
2018-03-22T04:05:32.241Z,1.24
2018-03-22T04:06:41.944Z,1.27
2018-03-22T04:07:51.394Z,1.32
2018-03-22T04:09:01.100Z,1.25
2018-03-22T04:10:10.562Z,1.24
2018-03-22T04:11:20.262Z,1.27
2018-03-22T04:12:29.960Z,1.27
2018-03-22T04:13:39.660Z,1.3
2018-03-22T04:14:49.628Z,1.27
2018-03-22T04:15:58.801Z,1.36
2018-03-22T04:17:08.751Z,1.36
2018-03-22T04:18:18.708Z,1.31
2018-03-22T04:19:28.433Z,1.3
2018-03-22T04:20:38.145Z,1.3
2018-03-22T04:21:47.572Z,1.32
2018-03-22T04:22:57.544Z,1.31
2018-03-22T04:24:06.977Z,1.36
2018-03-22T04:25:16.668Z,1.27
2018-03-22T04:26:26.381Z,1.28
2018-03-22T04:27:36.084Z,1.27
2018-03-22T04:28:45.790Z,1.25
2018-03-22T04:29:55.224Z,1.3
2018-03-22T04:31:04.924Z,1.24
2018-03-22T04:32:14.621Z,1.18
2018-03-22T04:33:24.581Z,1.14
2018-03-22T04:34:34.285Z,1.21
2018-03-22T04:35:44.253Z,1.25
2018-03-22T04:36:54.370Z,1.27
2018-03-22T04:38:04.330Z,1.27
2018-03-22T04:39:14.033Z,1.31
2018-03-22T04:40:23.992Z,1.27
2018-03-22T04:41:33.697Z,1.18
2018-03-22T04:42:43.395Z,1.27
2018-03-22T04:43:53.403Z,1.27
2018-03-22T04:45:03.104Z,1.22
2018-03-22T04:46:13.058Z,1.27
2018-03-22T04:47:23.018Z,1.36
2018-03-22T04:48:32.982Z,1.25
2018-03-22T04:49:42.410Z,1.24
2018-03-22T04:50:52.353Z,1.24
2018-03-22T04:52:02.315Z,1.24
2018-03-22T04:53:12.021Z,1.31
2018-03-22T04:54:21.712Z,1.24
2018-03-22T04:55:31.661Z,1.25
2018-03-22T04:56:41.369Z,1.27
2018-03-22T04:57:51.597Z,1.3
2018-03-22T04:59:01.556Z,1.27
2018-03-22T05:00:11.510Z,1.27
2018-03-22T05:01:21.459Z,1.27
2018-03-22T05:02:31.151Z,1.22
2018-03-22T05:03:41.147Z,1.31
2018-03-22T05:04:50.844Z,1.24
2018-03-22T05:06:00.538Z,1.24
2018-03-22T05:07:10.252Z,1.25
2018-03-22T05:08:20.210Z,1.14
2018-03-22T05:09:30.540Z,1.27
2018-03-22T05:10:40.496Z,1.16
2018-03-22T05:11:50.478Z,1.14
2018-03-22T05:13:00.170Z,1.16
2018-03-22T05:14:10.148Z,1.14
2018-03-22T05:15:20.161Z,1.16
2018-03-22T05:16:30.110Z,1.14
2018-03-22T05:17:40.082Z,1.2
2018-03-22T05:18:50.043Z,1.22
2018-03-22T05:19:59.999Z,1.18
2018-03-22T05:21:09.966Z,1.22
2018-03-22T05:22:19.947Z,1.14
2018-03-22T05:23:29.642Z,1.22
2018-03-22T05:24:39.371Z,1.18
2018-03-22T05:25:49.326Z,1.16
2018-03-22T05:26:58.791Z,1.24
2018-03-22T05:28:08.490Z,1.22
2018-03-22T05:29:18.447Z,1.25
2018-03-22T05:30:28.414Z,1.27
2018-03-22T05:31:38.111Z,1.31
2018-03-22T05:32:48.377Z,1.28
2018-03-22T05:33:58.341Z,1.25
2018-03-22T05:35:08.299Z,1.21
2018-03-22T05:36:18.266Z,1.27
2018-03-22T05:37:28.227Z,1.24
2018-03-22T05:38:38.194Z,1.3
2018-03-22T05:39:48.206Z,1.27
2018-03-22T05:40:58.238Z,1.2
2018-03-22T05:42:08.210Z,1.22
2018-03-22T05:43:17.136Z,1.24
2018-03-22T05:44:26.582Z,1.27
2018-03-22T05:45:36.554Z,1.31
2018-03-22T05:46:46.585Z,1.31
2018-03-22T05:47:56.270Z,1.3
2018-03-22T05:49:05.763Z,1.4
2018-03-22T05:50:15.461Z,1.39
2018-03-22T05:51:25.421Z,1.4
2018-03-22T05:52:34.861Z,1.34
2018-03-22T05:53:44.049Z,1.39
2018-03-22T05:54:53.767Z,1.42
2018-03-22T05:56:03.481Z,1.45
2018-03-22T05:57:13.177Z,1.52
2018-03-22T05:58:22.622Z,1.45
2018-03-22T05:59:32.323Z,1.56
2018-03-22T06:00:42.017Z,1.56
2018-03-22T06:01:51.716Z,1.58
2018-03-22T06:03:01.678Z,1.61
2018-03-22T06:04:11.715Z,1.68
2018-03-22T06:05:21.693Z,1.64
2018-03-22T06:06:31.444Z,1.75
2018-03-22T06:07:41.169Z,1.75
2018-03-22T06:08:50.942Z,1.7
2018-03-22T06:10:00.463Z,1.66
2018-03-22T06:11:09.649Z,1.7
2018-03-22T06:12:19.363Z,1.7
2018-03-22T06:13:29.073Z,1.74
2018-03-22T06:14:38.782Z,1.74
2018-03-22T06:15:48.469Z,1.75
2018-03-22T06:16:57.715Z,1.78
2018-03-22T06:18:07.433Z,1.81
2018-03-22T06:19:17.405Z,1.84
2018-03-22T06:20:26.579Z,1.84
2018-03-22T06:21:36.339Z,1.76
2018-03-22T06:22:45.783Z,1.78
2018-03-22T06:23:55.772Z,1.84
2018-03-22T06:25:05.747Z,1.85
2018-03-22T06:26:15.707Z,1.79
2018-03-22T06:27:25.678Z,1.88
2018-03-22T06:28:35.399Z,1.82
2018-03-22T06:29:45.106Z,1.81
2018-03-22T06:30:54.568Z,1.79
2018-03-22T06:32:04.273Z,1.82
2018-03-22T06:33:14.236Z,1.93
2018-03-22T06:34:24.191Z,1.93
2018-03-22T06:35:33.618Z,1.89
2018-03-22T06:36:43.620Z,2.01
2018-03-22T06:37:53.632Z,1.92
2018-03-22T06:39:03.362Z,2.08
2018-03-22T06:40:13.087Z,2.08
2018-03-22T06:41:22.806Z,2.19
2018-03-22T06:42:32.798Z,2.08
2018-03-22T06:43:42.248Z,2.19
2018-03-22T06:44:51.951Z,2.19
2018-03-22T06:46:01.148Z,2.26
2018-03-22T06:47:10.878Z,2.3
2018-03-22T06:48:20.841Z,2.15
2018-03-22T06:49:30.809Z,2.28
2018-03-22T06:50:40.884Z,2.22
2018-03-22T06:51:50.851Z,2.3
2018-03-22T06:53:00.298Z,2.3
2018-03-22T06:54:09.742Z,2.23
2018-03-22T06:55:19.497Z,2.26
2018-03-22T06:56:29.227Z,2.25
2018-03-22T06:57:39.221Z,2.25
2018-03-22T06:58:49.193Z,2.28
2018-03-22T06:59:59.175Z,2.25
2018-03-22T07:01:09.155Z,2.22
2018-03-22T07:02:18.859Z,2.14
2018-03-22T07:03:28.565Z,2.18
2018-03-22T07:04:38.538Z,2.15
2018-03-22T07:05:48.248Z,2.14
2018-03-22T07:06:58.080Z,2.07
2018-03-22T07:08:07.763Z,2.04
2018-03-22T07:09:17.477Z,2.05
2018-03-22T07:10:26.948Z,2.04
2018-03-22T07:11:36.924Z,2.04
2018-03-22T07:12:46.906Z,1.89
2018-03-22T07:13:56.901Z,2.04
2018-03-22T07:15:06.611Z,1.85
2018-03-22T07:16:16.334Z,1.78
2018-03-22T07:17:26.109Z,1.82
2018-03-22T07:18:35.823Z,1.76
2018-03-22T07:19:45.272Z,1.61
2018-03-22T07:20:54.506Z,1.57
2018-03-22T07:22:04.475Z,1.6
2018-03-22T07:23:14.444Z,1.46
2018-03-22T07:24:24.151Z,1.49
2018-03-22T07:25:33.909Z,1.39
2018-03-22T07:26:43.617Z,1.32
2018-03-22T07:27:53.347Z,1.36
2018-03-22T07:29:03.043Z,1.36
2018-03-22T07:30:12.814Z,1.32
2018-03-22T07:31:22.531Z,1.21
2018-03-22T07:32:32.502Z,1.25
2018-03-22T07:33:42.535Z,1.25
2018-03-22T07:34:51.986Z,1.13
2018-03-22T07:36:01.710Z,1.09
2018-03-22T07:37:11.680Z,1.04
2018-03-22T07:38:21.656Z,1.04
2018-03-22T07:39:31.625Z,1.06
2018-03-22T07:40:41.600Z,1
2018-03-22T07:41:51.305Z,0.94
2018-03-22T07:43:01.017Z,0.96
2018-03-22T07:44:10.229Z,1.03
2018-03-22T07:45:20.198Z,0.92
2018-03-22T07:46:30.171Z,1.06
2018-03-22T07:47:39.650Z,1.03
2018-03-22T07:48:49.612Z,0.92
2018-03-22T07:49:59.054Z,0.95
2018-03-22T07:51:08.755Z,0.95
2018-03-22T07:52:18.734Z,0.99
2018-03-22T07:53:28.182Z,0.99
2018-03-22T07:54:37.887Z,0.96
2018-03-22T07:55:47.590Z,0.94
2018-03-22T07:56:57.032Z,1
2018-03-22T07:58:06.474Z,1.03
2018-03-22T07:59:15.919Z,1.03
2018-03-22T08:00:25.632Z,1.06
2018-03-22T08:01:35.080Z,1.1
2018-03-22T08:02:44.791Z,1.13
2018-03-22T08:03:54.241Z,1.07
2018-03-22T08:05:04.252Z,1.16
2018-03-22T08:06:14.217Z,1.09
2018-03-22T08:07:24.172Z,1.18
2018-03-22T08:08:34.155Z,1.2
2018-03-22T08:09:43.904Z,1.21
2018-03-22T08:10:53.384Z,1.21
2018-03-22T08:12:03.099Z,1.18
2018-03-22T08:13:13.063Z,1.24
2018-03-22T08:14:22.539Z,1.28
2018-03-22T08:15:32.569Z,1.24
2018-03-22T08:16:42.291Z,1.36
2018-03-22T08:17:52.322Z,1.31
2018-03-22T08:19:02.035Z,1.34
2018-03-22T08:20:11.743Z,1.38
2018-03-22T08:21:21.734Z,1.39
2018-03-22T08:22:31.711Z,1.4
2018-03-22T08:23:41.426Z,1.38
2018-03-22T08:24:50.627Z,1.3
2018-03-22T08:26:00.341Z,1.36
2018-03-22T08:27:10.043Z,1.32
2018-03-22T08:28:19.809Z,1.25
2018-03-22T08:29:29.800Z,1.28
2018-03-22T08:30:39.498Z,1.2
2018-03-22T08:31:49.595Z,1.18
2018-03-22T08:32:59.313Z,1.13
2018-03-22T08:34:09.286Z,1.21
2018-03-22T08:35:19.077Z,1.21
2018-03-22T08:36:28.781Z,1.16
2018-03-22T08:37:38.500Z,1.12
2018-03-22T08:38:48.461Z,1.2
2018-03-22T08:39:58.449Z,1.13
2018-03-22T08:41:08.451Z,1.14
2018-03-22T08:42:18.254Z,1.18
2018-03-22T08:43:27.710Z,1.24
2018-03-22T08:44:37.428Z,1.25
2018-03-22T08:45:47.391Z,1.21
2018-03-22T08:46:56.887Z,1.25
2018-03-22T08:48:06.361Z,1.28
2018-03-22T08:49:16.319Z,1.25
2018-03-22T08:50:25.761Z,1.27
2018-03-22T08:51:35.228Z,1.32
2018-03-22T08:52:45.006Z,1.31
2018-03-22T08:53:54.762Z,1.25
2018-03-22T08:55:04.483Z,1.24
2018-03-22T08:56:14.467Z,1.2
2018-03-22T08:57:24.187Z,1.24
2018-03-22T08:58:34.177Z,1.13
2018-03-22T08:59:44.020Z,1.16
2018-03-22T09:00:53.744Z,1.14
2018-03-22T09:02:03.718Z,1.2
2018-03-22T09:03:13.443Z,1.13
2018-03-22T09:04:23.149Z,1.12
2018-03-22T09:05:32.352Z,1.1
2018-03-22T09:06:41.804Z,1.09
2018-03-22T09:07:51.515Z,1.1
2018-03-22T09:09:01.523Z,1.06
2018-03-22T09:10:11.222Z,1.13
2018-03-22T09:11:20.142Z,1.06
2018-03-22T09:12:29.857Z,1.12
2018-03-22T09:13:39.589Z,1.13
2018-03-22T09:14:49.084Z,1.1
2018-03-22T09:15:59.072Z,1.13
2018-03-22T09:17:08.263Z,1.09
2018-03-22T09:18:17.974Z,1.04
2018-03-22T09:19:27.677Z,1.06
2018-03-22T09:20:37.660Z,1.09
2018-03-22T09:21:47.645Z,1.06
2018-03-22T09:22:57.633Z,1.07
2018-03-22T09:24:07.646Z,1.1
2018-03-22T09:25:17.354Z,1.1
2018-03-22T09:26:27.078Z,1.07
2018-03-22T09:27:37.037Z,1.12
2018-03-22T09:28:47.301Z,1.12
2018-03-22T09:29:57.021Z,1.09
2018-03-22T09:31:07.022Z,1.03
2018-03-22T09:32:17.006Z,1.04
2018-03-22T09:33:26.996Z,1.07
2018-03-22T09:34:36.711Z,1.06
2018-03-22T09:35:46.170Z,1.04
2018-03-22T09:36:55.912Z,1.09
2018-03-22T09:38:05.897Z,1.12
2018-03-22T09:39:15.847Z,1.09
2018-03-22T09:40:25.552Z,1.07
2018-03-22T09:41:35.007Z,1.16
2018-03-22T09:42:44.730Z,1.03
2018-03-22T09:43:54.443Z,1
2018-03-22T09:45:04.499Z,1.06
2018-03-22T09:46:14.484Z,1.09
2018-03-22T09:47:23.951Z,1.02
2018-03-22T09:48:33.667Z,1
2018-03-22T09:49:43.435Z,0.96
2018-03-22T09:50:53.187Z,0.95
2018-03-22T09:52:02.891Z,0.95
2018-03-22T09:53:12.616Z,1.03
2018-03-22T09:54:22.594Z,0.94
2018-03-22T09:55:32.319Z,0.99
2018-03-22T09:56:42.135Z,0.91
2018-03-22T09:57:52.114Z,0.95
2018-03-22T09:59:02.111Z,0.99
2018-03-22T10:00:12.073Z,0.99
2018-03-22T10:01:22.058Z,0.95
2018-03-22T10:02:31.804Z,0.99
2018-03-22T10:03:41.809Z,0.99
2018-03-22T10:04:51.819Z,1
2018-03-22T10:06:01.791Z,1.03
2018-03-22T10:07:11.764Z,0.96
2018-03-22T10:08:21.727Z,0.99
2018-03-22T10:09:31.447Z,1
2018-03-22T10:10:41.431Z,1.02
2018-03-22T10:11:51.165Z,1.09
2018-03-22T10:13:01.151Z,1.14
2018-03-22T10:14:11.123Z,1.07
2018-03-22T10:15:21.083Z,1.07
2018-03-22T10:16:31.109Z,1.13
2018-03-22T10:17:40.816Z,1.13
2018-03-22T10:18:50.784Z,1.13
2018-03-22T10:20:00.255Z,1.12
2018-03-22T10:21:10.239Z,1.06
2018-03-22T10:22:19.934Z,1.1
2018-03-22T10:23:29.911Z,1.06
2018-03-22T10:24:39.614Z,1.1
2018-03-22T10:25:49.600Z,1.02
2018-03-22T10:26:59.340Z,1.13
2018-03-22T10:28:09.307Z,1.12
2018-03-22T10:29:19.278Z,1.1
2018-03-22T10:30:29.225Z,1.13
2018-03-22T10:31:39.253Z,1.12
2018-03-22T10:32:48.998Z,1.09
2018-03-22T10:33:58.985Z,1.21
2018-03-22T10:35:08.999Z,1.21
2018-03-22T10:36:18.749Z,1.16
2018-03-22T10:37:27.938Z,1.16
2018-03-22T10:38:37.399Z,1.13
2018-03-22T10:39:47.107Z,1.27
2018-03-22T10:40:56.569Z,1.25
2018-03-22T10:42:06.644Z,1.2
2018-03-22T10:43:16.643Z,1.24
2018-03-22T10:44:26.352Z,1.25
2018-03-22T10:45:36.357Z,1.31
2018-03-22T10:46:46.351Z,1.34
2018-03-22T10:47:56.553Z,1.3
2018-03-22T10:49:06.558Z,1.38
2018-03-22T10:50:16.303Z,1.34
2018-03-22T10:51:25.780Z,1.38
2018-03-22T10:52:35.500Z,1.36
2018-03-22T10:53:45.205Z,1.38
2018-03-22T10:54:55.186Z,1.38
2018-03-22T10:56:05.204Z,1.32
2018-03-22T10:57:14.399Z,1.38
2018-03-22T10:58:24.391Z,1.39
2018-03-22T10:59:34.416Z,1.4
2018-03-22T11:00:44.378Z,1.39
2018-03-22T11:01:54.358Z,1.36
2018-03-22T11:03:04.396Z,1.43
2018-03-22T11:04:13.863Z,1.38
2018-03-22T11:05:23.841Z,1.42
2018-03-22T11:06:33.282Z,1.38
2018-03-22T11:07:43.237Z,1.42
2018-03-22T11:08:52.939Z,1.34
2018-03-22T11:10:02.655Z,1.38
2018-03-22T11:11:12.658Z,1.43
2018-03-22T11:12:22.672Z,1.32
2018-03-22T11:13:32.395Z,1.38
2018-03-22T11:14:42.389Z,1.46
2018-03-22T11:15:51.852Z,1.42
2018-03-22T11:17:01.583Z,1.43
2018-03-22T11:18:11.297Z,1.48
2018-03-22T11:19:21.006Z,1.46
2018-03-22T11:20:30.984Z,1.52
2018-03-22T11:21:40.751Z,1.56
2018-03-22T11:22:50.467Z,1.57
2018-03-22T11:23:59.931Z,1.57
2018-03-22T11:25:09.398Z,1.61
2018-03-22T11:26:19.108Z,1.57
2018-03-22T11:27:28.845Z,1.67
2018-03-22T11:28:38.901Z,1.6
2018-03-22T11:29:48.887Z,1.63
2018-03-22T11:30:58.888Z,1.64
2018-03-22T11:32:08.607Z,1.63
2018-03-22T11:33:18.315Z,1.78
2018-03-22T11:34:28.447Z,1.74
2018-03-22T11:35:38.441Z,1.67
2018-03-22T11:36:48.432Z,1.82
2018-03-22T11:37:58.412Z,1.79
2018-03-22T11:39:08.392Z,1.84
2018-03-22T11:40:18.383Z,1.81
2018-03-22T11:41:27.974Z,1.88
2018-03-22T11:42:37.942Z,1.81
2018-03-22T11:43:47.909Z,1.78
2018-03-22T11:44:57.889Z,1.84
2018-03-22T11:46:07.888Z,1.92
2018-03-22T11:47:17.942Z,2.03
2018-03-22T11:48:27.643Z,1.93
2018-03-22T11:49:37.603Z,2.04
2018-03-22T11:50:47.363Z,2.01
2018-03-22T11:51:57.480Z,1.97
2018-03-22T11:53:07.501Z,2.04
2018-03-22T11:54:17.495Z,2.05
2018-03-22T11:55:27.217Z,2.01
2018-03-22T11:56:37.210Z,2
2018-03-22T11:57:47.169Z,1.95
2018-03-22T11:58:56.885Z,1.93
2018-03-22T12:00:06.869Z,1.89
2018-03-22T12:01:17.115Z,1.92
2018-03-22T12:02:27.145Z,1.97
2018-03-22T12:03:37.112Z,1.97
2018-03-22T12:04:46.942Z,2.01
2018-03-22T12:05:56.625Z,1.92
2018-03-22T12:07:06.616Z,1.93
2018-03-22T12:08:16.576Z,1.89
2018-03-22T12:09:26.287Z,2.04
2018-03-22T12:10:36.246Z,2
2018-03-22T12:11:46.268Z,2.05
2018-03-22T12:12:56.243Z,2.04
2018-03-22T12:14:06.242Z,2.04
2018-03-22T12:15:16.210Z,2.03
2018-03-22T12:16:26.175Z,2.15
2018-03-22T12:17:35.901Z,2.16
2018-03-22T12:18:45.882Z,2.14
2018-03-22T12:19:55.861Z,2.18
2018-03-22T12:21:05.833Z,2.22
2018-03-22T12:22:15.569Z,2.23
2018-03-22T12:23:25.587Z,2.26
2018-03-22T12:24:35.690Z,2.21
2018-03-22T12:25:45.671Z,2.25
2018-03-22T12:26:55.653Z,2.23
2018-03-22T12:28:05.114Z,2.26
2018-03-22T12:29:15.121Z,2.28
2018-03-22T12:30:24.847Z,2.28
2018-03-22T12:31:34.826Z,2.25
2018-03-22T12:32:44.821Z,2.32
2018-03-22T12:33:54.805Z,2.28
2018-03-22T12:35:04.773Z,2.26
2018-03-22T12:36:14.477Z,2.32
2018-03-22T12:37:23.925Z,2.23
2018-03-22T12:38:33.895Z,2.32
2018-03-22T12:39:43.610Z,2.32
2018-03-22T12:40:53.326Z,2.32
2018-03-22T12:42:03.080Z,2.33
2018-03-22T12:43:12.905Z,2.36
2018-03-22T12:44:22.726Z,2.26
2018-03-22T12:45:32.686Z,2.34
2018-03-22T12:46:42.404Z,2.36
2018-03-22T12:47:52.444Z,2.34
2018-03-22T12:49:02.135Z,2.25
2018-03-22T12:50:12.184Z,2.26
2018-03-22T12:51:22.242Z,2.34
2018-03-22T12:52:32.215Z,2.41
2018-03-22T12:53:42.213Z,2.26
2018-03-22T12:54:51.684Z,2.3
2018-03-22T12:56:01.646Z,2.34
2018-03-22T12:57:11.100Z,2.44
2018-03-22T12:58:20.813Z,2.46
2018-03-22T12:59:30.804Z,2.43
2018-03-22T13:00:40.816Z,2.52
2018-03-22T13:01:50.809Z,2.54
2018-03-22T13:03:00.271Z,2.52
2018-03-22T13:04:09.962Z,2.47
2018-03-22T13:05:19.423Z,2.47
2018-03-22T13:06:28.604Z,2.59
2018-03-22T13:07:38.336Z,2.46
2018-03-22T13:08:48.061Z,2.47
2018-03-22T13:09:58.015Z,2.57
2018-03-22T13:11:07.752Z,2.47
2018-03-22T13:12:17.717Z,2.61
2018-03-22T13:13:27.683Z,2.59
2018-03-22T13:14:37.409Z,2.58
2018-03-22T13:15:47.378Z,2.62
2018-03-22T13:16:57.357Z,2.64
2018-03-22T13:18:07.109Z,2.59
2018-03-22T13:19:17.104Z,2.65
2018-03-22T13:20:27.070Z,2.65
2018-03-22T13:21:36.805Z,2.65
2018-03-22T13:22:46.772Z,2.65
2018-03-22T13:23:56.518Z,2.65
2018-03-22T13:25:06.500Z,2.69
2018-03-22T13:26:16.526Z,2.59
2018-03-22T13:27:26.295Z,2.65
2018-03-22T13:28:36.007Z,2.75
2018-03-22T13:29:46.194Z,2.69
2018-03-22T13:30:55.944Z,2.76
2018-03-22T13:32:05.694Z,2.69
2018-03-22T13:33:15.685Z,2.75
2018-03-22T13:34:25.174Z,2.73
2018-03-22T13:35:34.630Z,2.73
2018-03-22T13:36:44.353Z,2.72
2018-03-22T13:37:54.418Z,2.75
2018-03-22T13:39:03.861Z,2.73
2018-03-22T13:40:13.592Z,2.77
2018-03-22T13:41:23.311Z,2.68
2018-03-22T13:42:33.312Z,2.76
2018-03-22T13:43:43.297Z,2.73
2018-03-22T13:44:53.298Z,2.72
2018-03-22T13:46:03.012Z,2.79
2018-03-22T13:47:12.763Z,2.75
2018-03-22T13:48:22.745Z,2.79
2018-03-22T13:49:32.248Z,2.8
2018-03-22T13:50:41.957Z,2.73
2018-03-22T13:51:51.925Z,2.77
2018-03-22T13:53:01.902Z,2.77
2018-03-22T13:54:11.870Z,2.79
2018-03-22T13:55:21.858Z,2.76
2018-03-22T13:56:31.575Z,2.77
2018-03-22T13:57:41.048Z,2.76
2018-03-22T13:58:51.026Z,2.75
2018-03-22T14:00:00.744Z,2.85
2018-03-22T14:01:10.463Z,2.82
2018-03-22T14:02:19.922Z,2.8
2018-03-22T14:03:29.669Z,2.85
2018-03-22T14:04:39.637Z,2.87
2018-03-22T14:05:49.618Z,2.83
2018-03-22T14:06:59.064Z,2.82
2018-03-22T14:08:08.517Z,2.87
2018-03-22T14:09:18.493Z,2.85
2018-03-22T14:10:28.480Z,2.85
2018-03-22T14:11:38.217Z,2.9
2018-03-22T14:12:48.281Z,2.85
2018-03-22T14:13:58.257Z,2.85
2018-03-22T14:15:08.253Z,2.9
2018-03-22T14:16:17.696Z,2.95
2018-03-22T14:17:27.404Z,2.94
2018-03-22T14:18:36.863Z,2.97
2018-03-22T14:19:46.822Z,2.9
2018-03-22T14:20:56.787Z,3
2018-03-22T14:22:06.523Z,2.94
2018-03-22T14:23:16.489Z,2.95
2018-03-22T14:24:26.460Z,2.95
2018-03-22T14:25:36.428Z,2.93
2018-03-22T14:26:46.158Z,2.97
2018-03-22T14:27:56.123Z,2.98
2018-03-22T14:29:06.112Z,2.94
2018-03-22T14:30:15.815Z,3.01
2018-03-22T14:31:25.533Z,2.98
2018-03-22T14:32:35.245Z,2.97
2018-03-22T14:33:45.207Z,3.05
2018-03-22T14:34:55.176Z,2.97
2018-03-22T14:36:04.901Z,2.91
2018-03-22T14:37:14.953Z,3
2018-03-22T14:38:24.662Z,2.95
2018-03-22T14:39:34.382Z,3.01
2018-03-22T14:40:44.093Z,3.01
2018-03-22T14:41:53.810Z,2.95
2018-03-22T14:43:03.542Z,2.93
2018-03-22T14:44:13.751Z,2.97
2018-03-22T14:45:23.472Z,2.98
2018-03-22T14:46:33.164Z,2.95
2018-03-22T14:47:43.201Z,3.01
2018-03-22T14:48:53.169Z,3.06
2018-03-22T14:50:03.152Z,3.09
2018-03-22T14:51:12.879Z,3.01
2018-03-22T14:52:22.916Z,3.12
2018-03-22T14:53:32.985Z,3.03
2018-03-22T14:54:42.694Z,3.08
2018-03-22T14:55:52.681Z,3.13
2018-03-22T14:57:02.652Z,3.11
2018-03-22T14:58:12.629Z,3.06
2018-03-22T14:59:22.618Z,3.11
2018-03-22T15:00:32.663Z,3.06
2018-03-22T15:01:42.683Z,3.06
2018-03-22T15:02:52.132Z,3.13
2018-03-22T15:04:02.337Z,3.06
2018-03-22T15:05:12.310Z,3.08
2018-03-22T15:06:22.415Z,3.12
2018-03-22T15:07:32.133Z,3.01
2018-03-22T15:08:42.186Z,3.12
2018-03-22T15:09:52.155Z,3.15
2018-03-22T15:11:02.141Z,3.12
2018-03-22T15:12:12.135Z,3.13
2018-03-22T15:13:21.584Z,3.13
2018-03-22T15:14:31.567Z,3.09
2018-03-22T15:15:41.014Z,3.09
2018-03-22T15:16:51.031Z,3.11
2018-03-22T15:18:01.056Z,3.09
2018-03-22T15:19:10.844Z,3.15
2018-03-22T15:20:20.336Z,3.09
2018-03-22T15:21:30.050Z,3.09
2018-03-22T15:22:40.035Z,3.13
2018-03-22T15:23:49.764Z,3.11
2018-03-22T15:24:59.752Z,3.09
2018-03-22T15:26:09.202Z,3.13
2018-03-22T15:27:18.928Z,3.08
2018-03-22T15:28:29.009Z,3.06
2018-03-22T15:29:38.735Z,3.16
2018-03-22T15:30:48.456Z,3.12
2018-03-22T15:31:58.176Z,3.06